createdAt,value
2023-04-28T00:01:27.981Z,0.70
2023-04-28T00:03:30.702Z,0.77
2023-04-28T00:05:33.617Z,2.25
2023-04-28T00:07:36.339Z,0.82
2023-04-28T00:09:38.919Z,1.58
2023-04-28T00:11:45.171Z,0.90
2023-04-28T00:13:47.866Z,0.77
2023-04-28T00:15:52.849Z,1.13
2023-04-28T00:17:59.375Z,0.60
2023-04-28T00:20:02.274Z,1.35
2023-04-28T00:22:04.868Z,1.75
2023-04-28T00:24:07.992Z,2.33
2023-04-28T00:26:12.290Z,1.17
2023-04-28T00:28:30.602Z,1.08
2023-04-28T00:30:36.586Z,1.08
2023-04-28T00:32:39.156Z,1.05
2023-04-28T00:34:42.033Z,1.67
2023-04-28T00:36:44.730Z,1.40
2023-04-28T00:38:47.328Z,1.48
2023-04-28T00:40:49.917Z,0.80
2023-04-28T00:42:52.844Z,1.20
2023-04-28T00:44:56.975Z,0.77
2023-04-28T00:46:59.904Z,1.00
2023-04-28T00:49:02.863Z,0.82
2023-04-28T00:51:06.681Z,1.15
2023-04-28T00:53:09.337Z,1.08
2023-04-28T00:55:13.912Z,0.77
2023-04-28T00:57:16.473Z,1.50
2023-04-28T00:59:19.124Z,2.28
2023-04-28T01:01:23.345Z,1.60
2023-04-28T01:03:26.013Z,0.60
2023-04-28T01:05:29.886Z,1.70
2023-04-28T01:07:32.585Z,0.82
2023-04-28T01:09:35.267Z,1.10
2023-04-28T01:11:37.991Z,2.55
2023-04-28T01:13:40.715Z,0.98
2023-04-28T01:15:43.491Z,1.23
2023-04-28T01:17:47.745Z,1.45
2023-04-28T01:19:50.476Z,1.80
2023-04-28T01:21:53.126Z,1.13
2023-04-28T01:23:57.212Z,1.08
2023-04-28T01:25:59.758Z,1.75
2023-04-28T01:28:02.349Z,1.75
2023-04-28T01:30:05.424Z,0.52
2023-04-28T01:32:08.106Z,0.73
2023-04-28T01:34:10.806Z,1.38
2023-04-28T01:36:13.416Z,1.10
2023-04-28T01:38:15.997Z,1.60
2023-04-28T01:40:20.152Z,1.10
2023-04-28T01:42:22.856Z,2.00
2023-04-28T01:44:25.560Z,1.52
2023-04-28T01:46:28.199Z,1.73
2023-04-28T01:48:31.289Z,1.33
2023-04-28T01:50:33.831Z,0.75
2023-04-28T01:52:36.544Z,0.80
2023-04-28T01:54:39.224Z,0.60
2023-04-28T01:56:43.351Z,1.23
2023-04-28T01:58:46.568Z,1.00
2023-04-28T02:00:49.146Z,0.75
2023-04-28T02:02:52.113Z,0.65
2023-04-28T02:04:54.881Z,1.27
2023-04-28T02:06:57.662Z,0.73
2023-04-28T02:09:00.208Z,0.52
2023-04-28T02:11:03.993Z,2.20
2023-04-28T02:13:08.241Z,3.20
2023-04-28T02:15:11.256Z,1.05
2023-04-28T02:17:13.901Z,1.05
2023-04-28T02:19:16.772Z,0.88
2023-04-28T02:21:19.298Z,1.75
2023-04-28T02:23:22.058Z,1.00
2023-04-28T02:25:24.704Z,1.48
2023-04-28T02:27:27.394Z,0.40
2023-04-28T02:29:32.076Z,0.80
2023-04-28T02:31:35.527Z,0.75
2023-04-28T02:33:38.877Z,1.25
2023-04-28T02:35:43.105Z,0.60
2023-04-28T02:37:46.625Z,0.82
2023-04-28T02:39:49.215Z,0.95
2023-04-28T02:41:52.155Z,0.80
2023-04-28T02:43:55.044Z,0.77
2023-04-28T02:45:59.327Z,7.05
2023-04-28T02:48:03.645Z,1.40
2023-04-28T02:50:06.978Z,0.85
2023-04-28T02:52:09.536Z,0.85
2023-04-28T02:54:15.404Z,0.80
2023-04-28T02:56:18.394Z,1.23
2023-04-28T02:58:21.226Z,1.00
2023-04-28T03:00:24.084Z,0.88
2023-04-28T03:02:28.445Z,1.38
2023-04-28T03:04:31.249Z,0.52
2023-04-28T03:06:34.128Z,1.15
2023-04-28T03:08:36.797Z,1.50
2023-04-28T03:10:39.575Z,0.40
2023-04-28T03:12:42.345Z,0.90
2023-04-28T03:14:44.966Z,1.73
2023-04-28T03:16:47.552Z,1.23
2023-04-28T03:18:51.571Z,0.90
2023-04-28T03:20:54.101Z,0.50
2023-04-28T03:22:56.800Z,1.95
2023-04-28T03:24:59.433Z,1.00
2023-04-28T03:27:02.193Z,0.75
2023-04-28T03:29:05.093Z,1.15
2023-04-28T03:31:07.676Z,1.70
2023-04-28T03:33:10.390Z,0.60
2023-04-28T03:35:14.437Z,2.05
2023-04-28T03:37:17.013Z,1.60
2023-04-28T03:39:19.797Z,0.70
2023-04-28T03:41:22.465Z,1.42
2023-04-28T03:43:25.256Z,0.45
2023-04-28T03:45:28.048Z,0.70
2023-04-28T03:47:30.624Z,0.70
2023-04-28T03:49:33.276Z,0.68
2023-04-28T03:51:37.666Z,1.05
2023-04-28T03:53:40.419Z,0.90
2023-04-28T03:55:43.035Z,0.73
2023-04-28T03:57:46.235Z,0.32
2023-04-28T03:59:48.872Z,0.40
2023-04-28T04:01:51.821Z,1.23
2023-04-28T04:03:54.514Z,1.25
2023-04-28T04:05:57.466Z,0.30
2023-04-28T04:08:00.402Z,0.80
2023-04-28T04:10:04.608Z,0.68
2023-04-28T04:12:08.124Z,0.60
2023-04-28T04:14:11.046Z,0.52
2023-04-28T04:16:15.824Z,1.63
2023-04-28T04:18:18.659Z,0.40
2023-04-28T04:20:21.568Z,1.30
2023-04-28T04:22:24.169Z,0.77
2023-04-28T04:24:28.271Z,0.70
2023-04-28T04:26:30.956Z,1.38
2023-04-28T04:28:33.732Z,0.60
2023-04-28T04:30:36.325Z,0.30
2023-04-28T04:32:39.333Z,1.65
2023-04-28T04:34:42.096Z,0.57
2023-04-28T04:36:45.102Z,0.50
2023-04-28T04:38:47.752Z,1.15
2023-04-28T04:40:51.937Z,0.35
2023-04-28T04:42:54.506Z,0.98
2023-04-28T04:44:57.084Z,1.08
2023-04-28T04:46:59.672Z,0.40
2023-04-28T04:49:02.281Z,0.60
2023-04-28T04:51:05.216Z,0.60
2023-04-28T04:53:10.620Z,0.50
2023-04-28T04:55:15.970Z,0.52
2023-04-28T04:57:20.077Z,0.60
2023-04-28T04:59:22.812Z,0.30
2023-04-28T05:01:25.441Z,0.60
2023-04-28T05:03:28.317Z,0.50
2023-04-28T05:05:31.572Z,0.85
2023-04-28T05:07:34.620Z,0.47
2023-04-28T05:09:37.302Z,0.50
2023-04-28T05:11:39.860Z,0.55
2023-04-28T05:13:43.915Z,0.60
2023-04-28T05:15:46.563Z,0.95
2023-04-28T05:17:49.213Z,0.20
2023-04-28T05:19:52.021Z,0.40
2023-04-28T05:21:58.254Z,1.55
2023-04-28T05:24:00.828Z,0.35
2023-04-28T05:26:04.250Z,0.32
2023-04-28T05:28:08.948Z,0.40
2023-04-28T05:30:13.343Z,0.20
2023-04-28T05:32:16.004Z,0.60
2023-04-28T05:34:18.715Z,0.47
2023-04-28T05:36:21.553Z,0.30
2023-04-28T05:38:24.120Z,2.50
2023-04-28T05:40:27.473Z,1.40
2023-04-28T05:42:30.180Z,0.30
2023-04-28T05:44:32.866Z,0.40
2023-04-28T05:46:37.380Z,1.30
2023-04-28T05:48:40.010Z,0.45
2023-04-28T05:50:42.702Z,0.63
2023-04-28T05:52:45.542Z,1.25
2023-04-28T05:54:48.245Z,0.30
2023-04-28T05:56:51.301Z,1.48
2023-04-28T05:58:54.082Z,0.32
2023-04-28T06:00:56.925Z,0.82
2023-04-28T06:03:01.284Z,1.80
2023-04-28T06:05:04.411Z,0.40
2023-04-28T06:07:07.135Z,0.43
2023-04-28T06:09:09.726Z,0.40
2023-04-28T06:11:12.340Z,0.68
2023-04-28T06:13:15.116Z,0.40
2023-04-28T06:15:17.717Z,0.45
2023-04-28T06:17:20.427Z,0.98
2023-04-28T06:19:24.913Z,0.65
2023-04-28T06:21:28.682Z,0.70
2023-04-28T06:23:31.321Z,0.35
2023-04-28T06:25:34.300Z,1.33
2023-04-28T06:27:36.943Z,0.70
2023-04-28T06:29:39.596Z,0.55
2023-04-28T06:31:42.394Z,0.38
2023-04-28T06:33:45.027Z,0.40
2023-04-28T06:35:49.142Z,0.90
2023-04-28T06:37:51.738Z,0.60
2023-04-28T06:39:54.300Z,0.95
2023-04-28T06:41:57.675Z,0.32
2023-04-28T06:44:01.481Z,0.73
2023-04-28T06:46:04.203Z,1.23
2023-04-28T06:48:07.925Z,1.08
2023-04-28T06:50:11.083Z,0.73
2023-04-28T06:52:17.834Z,0.40
2023-04-28T06:54:20.684Z,0.50
2023-04-28T06:56:23.405Z,1.40
2023-04-28T06:58:26.059Z,1.25
2023-04-28T07:00:28.839Z,0.60
2023-04-28T07:02:31.733Z,0.75
2023-04-28T07:04:34.514Z,1.15
2023-04-28T07:06:37.186Z,0.43
2023-04-28T07:08:41.389Z,1.10
2023-04-28T07:10:44.345Z,1.83
2023-04-28T07:12:47.262Z,2.25
2023-04-28T07:14:50.737Z,1.92
2023-04-28T07:16:53.758Z,4.53
2023-04-28T07:18:56.579Z,1.40
2023-04-28T07:20:59.219Z,28.95
2023-04-28T07:23:01.972Z,23.35
2023-04-28T07:25:06.439Z,6.47
2023-04-28T07:27:09.201Z,4.43
2023-04-28T07:29:13.491Z,6.13
2023-04-28T07:31:18.831Z,5.80
2023-04-28T07:33:21.656Z,5.43
2023-04-28T07:35:24.246Z,3.15
2023-04-28T07:37:26.854Z,3.22
2023-04-28T07:39:29.551Z,3.47
2023-04-28T07:41:36.892Z,4.75
2023-04-28T07:43:39.843Z,5.72
2023-04-28T07:45:45.601Z,7.22
2023-04-28T07:47:48.546Z,5.88
2023-04-28T07:49:51.201Z,5.85
2023-04-28T07:51:55.249Z,4.45
2023-04-28T07:53:58.095Z,4.28
2023-04-28T07:56:01.174Z,6.88
2023-04-28T07:58:05.218Z,3.55
2023-04-28T08:00:08.610Z,10.25
2023-04-28T08:02:13.441Z,6.10
2023-04-28T08:04:16.655Z,7.53
2023-04-28T08:06:19.625Z,6.95
2023-04-28T08:08:22.372Z,6.32
2023-04-28T08:10:26.562Z,8.35
2023-04-28T08:12:29.274Z,36.50
2023-04-28T08:14:33.473Z,23.13
2023-04-28T08:16:40.234Z,16.98
2023-04-28T08:18:43.049Z,12.25
2023-04-28T08:20:45.721Z,7.28
2023-04-28T08:22:48.370Z,17.98
2023-04-28T08:24:50.945Z,15.70
2023-04-28T08:26:53.587Z,30.90
2023-04-28T08:28:56.241Z,15.75
2023-04-28T08:31:01.011Z,13.68
2023-04-28T08:33:03.709Z,11.30
2023-04-28T08:35:07.076Z,9.38
2023-04-28T08:37:09.689Z,10.93
2023-04-28T08:39:13.634Z,28.23
2023-04-28T08:41:17.081Z,15.73
2023-04-28T08:43:21.521Z,10.13
2023-04-28T08:45:26.748Z,9.85
2023-04-28T08:47:34.755Z,5.05
2023-04-28T08:49:37.712Z,6.22
2023-04-28T08:51:45.744Z,8.75
2023-04-28T08:54:14.985Z,5.05
2023-04-28T08:56:15.452Z,5.45
2023-04-28T08:58:18.749Z,6.28
2023-04-28T09:00:21.472Z,3.38
2023-04-28T09:02:24.272Z,3.55
2023-04-28T09:04:28.665Z,4.22
2023-04-28T09:06:33.427Z,4.10
2023-04-28T09:08:36.040Z,2.60
2023-04-28T09:10:39.159Z,5.75
2023-04-28T09:12:42.054Z,4.15
2023-04-28T09:14:44.615Z,2.25
2023-04-28T09:16:47.389Z,3.25
2023-04-28T09:18:57.001Z,3.03
2023-04-28T09:21:08.080Z,2.47
2023-04-28T09:23:14.314Z,1.30
2023-04-28T09:25:17.578Z,0.88
2023-04-28T09:27:27.174Z,4.22
2023-04-28T09:29:30.071Z,1.95
2023-04-28T09:31:37.910Z,1.95
2023-04-28T09:33:57.212Z,2.00
2023-04-28T09:36:00.014Z,2.50
2023-04-28T09:38:04.109Z,2.83
2023-04-28T09:40:07.934Z,1.38
2023-04-28T09:42:10.755Z,1.55
2023-04-28T09:44:14.311Z,3.45
2023-04-28T09:46:29.437Z,2.63
2023-04-28T09:48:33.352Z,2.53
2023-04-28T09:50:41.557Z,3.55
2023-04-28T09:52:45.840Z,2.88
2023-04-28T09:54:53.651Z,1.50
2023-04-28T09:56:56.913Z,3.10
2023-04-28T09:59:00.027Z,3.33
2023-04-28T10:01:03.113Z,2.35
2023-04-28T10:03:06.111Z,3.15
2023-04-28T10:05:10.508Z,1.80
2023-04-28T10:07:14.500Z,14.88
2023-04-28T10:09:18.095Z,4.05
2023-04-28T10:11:22.992Z,4.95
2023-04-28T10:13:25.911Z,3.75
2023-04-28T10:15:28.724Z,2.50
2023-04-28T10:17:31.388Z,3.15
2023-04-28T10:19:34.256Z,1.45
2023-04-28T10:21:43.277Z,2.28
2023-04-28T10:23:55.654Z,2.17
2023-04-28T10:25:59.753Z,2.15
2023-04-28T10:28:06.750Z,1.42
2023-04-28T10:30:22.768Z,2.47
2023-04-28T10:32:29.991Z,1.38
2023-04-28T10:34:32.603Z,1.02
2023-04-28T10:36:48.630Z,1.20
2023-04-28T10:39:10.707Z,2.33
2023-04-28T10:41:32.469Z,1.90
2023-04-28T10:43:39.713Z,1.67
2023-04-28T10:46:06.242Z,2.10
2023-04-28T10:48:09.072Z,3.60
2023-04-28T10:50:12.573Z,2.75
2023-04-28T10:52:30.079Z,2.95
2023-04-28T10:54:33.088Z,2.35
2023-04-28T10:56:35.984Z,2.28
2023-04-28T10:58:42.600Z,2.97
2023-04-28T11:00:47.746Z,1.42
2023-04-28T11:02:50.643Z,3.00
2023-04-28T11:05:20.833Z,1.77
2023-04-28T11:07:23.461Z,6.18
2023-04-28T11:09:44.785Z,2.47
2023-04-28T11:12:06.031Z,2.45
2023-04-28T11:14:27.316Z,3.45
2023-04-28T11:16:32.724Z,3.55
2023-04-28T11:18:44.844Z,4.28
2023-04-28T11:20:52.513Z,3.88
2023-04-28T11:22:55.507Z,3.60
2023-04-28T11:24:58.883Z,6.40
2023-04-28T11:27:02.167Z,5.25
2023-04-28T11:29:04.835Z,5.38
2023-04-28T11:31:14.201Z,6.82
2023-04-28T11:35:21.013Z,12.15
2023-04-28T11:37:23.927Z,32.03
2023-04-28T11:39:28.473Z,14.60
2023-04-28T11:41:31.073Z,11.68
2023-04-28T11:43:46.179Z,21.55
2023-04-28T11:45:50.101Z,15.13
2023-04-28T11:47:52.946Z,27.23
2023-04-28T11:49:55.609Z,22.05
2023-04-28T11:52:06.087Z,17.48
2023-04-28T11:54:11.761Z,20.17
2023-04-28T11:56:14.485Z,18.38
2023-04-28T11:58:22.388Z,10.90
2023-04-28T12:00:26.066Z,9.10
2023-04-28T12:02:29.935Z,5.45
2023-04-28T12:04:35.753Z,4.88
2023-04-28T12:06:38.820Z,3.15
2023-04-28T12:08:42.863Z,2.10
2023-04-28T12:10:45.592Z,3.85
2023-04-28T12:12:52.714Z,5.15
2023-04-28T12:14:56.920Z,4.30
2023-04-28T12:16:59.930Z,2.50
2023-04-28T12:19:06.451Z,2.58
2023-04-28T12:21:21.273Z,1.75
2023-04-28T12:23:30.178Z,1.83
2023-04-28T12:25:36.086Z,2.42
2023-04-28T12:27:40.797Z,4.57
2023-04-28T12:29:46.174Z,4.47
2023-04-28T12:31:50.431Z,4.03
2023-04-28T12:33:53.767Z,1.30
2023-04-28T12:35:57.603Z,1.65
2023-04-28T12:38:00.243Z,2.80
2023-04-28T12:40:04.408Z,7.95
2023-04-28T12:42:08.555Z,6.65
2023-04-28T12:44:11.195Z,7.28
2023-04-28T12:46:14.972Z,7.15
2023-04-28T12:48:17.625Z,15.43
2023-04-28T12:50:20.429Z,12.88
2023-04-28T12:52:23.338Z,8.20
2023-04-28T12:54:26.029Z,4.68
2023-04-28T12:56:28.813Z,3.65
2023-04-28T12:58:33.283Z,6.25
2023-04-28T13:00:35.941Z,5.90
2023-04-28T13:02:39.237Z,2.97
2023-04-28T13:04:42.935Z,6.20
2023-04-28T13:06:45.901Z,9.70
2023-04-28T13:08:48.628Z,7.40
2023-04-28T13:10:51.425Z,8.23
2023-04-28T13:12:53.980Z,7.80
2023-04-28T13:14:58.222Z,3.90
2023-04-28T13:17:03.012Z,4.60
2023-04-28T13:19:09.472Z,4.05
2023-04-28T13:21:12.759Z,7.75
2023-04-28T13:23:15.600Z,3.85
2023-04-28T13:25:18.155Z,2.53
2023-04-28T13:27:20.779Z,14.48
2023-04-28T13:29:23.626Z,15.35
2023-04-28T13:31:28.177Z,7.15
2023-04-28T13:33:31.326Z,4.25
2023-04-28T13:35:33.990Z,11.60
2023-04-28T13:37:42.401Z,14.57
2023-04-28T13:39:45.080Z,11.02
2023-04-28T13:41:47.872Z,3.72
2023-04-28T13:43:50.708Z,3.30
2023-04-28T13:45:53.392Z,15.07
2023-04-28T13:47:57.593Z,5.82
2023-04-28T13:50:00.398Z,10.20
2023-04-28T13:52:03.873Z,7.88
2023-04-28T13:54:08.819Z,3.42
2023-04-28T13:56:12.178Z,4.72
2023-04-28T13:58:15.644Z,8.25
2023-04-28T14:00:20.465Z,11.73
2023-04-28T14:02:24.333Z,17.45
2023-04-28T14:04:28.565Z,11.75
2023-04-28T14:06:33.636Z,18.10
2023-04-28T14:08:37.341Z,11.98
2023-04-28T14:10:39.883Z,7.32
2023-04-28T14:12:43.343Z,2.28
2023-04-28T14:14:48.494Z,2.50
2023-04-28T14:16:51.319Z,37.78
2023-04-28T14:18:54.215Z,43.88
2023-04-28T14:20:58.514Z,33.38
2023-04-28T14:23:01.207Z,12.50
2023-04-28T14:25:03.829Z,11.52
2023-04-28T14:27:06.540Z,9.75
2023-04-28T14:29:11.501Z,2.85
2023-04-28T14:31:14.185Z,8.57
2023-04-28T14:33:16.956Z,11.80
2023-04-28T14:35:20.867Z,19.52
2023-04-28T14:37:25.732Z,11.52
2023-04-28T14:39:28.320Z,6.38
2023-04-28T14:41:30.995Z,7.97
2023-04-28T14:43:33.645Z,13.25
2023-04-28T14:45:37.169Z,11.38
2023-04-28T14:47:40.197Z,13.45
2023-04-28T14:49:43.066Z,8.73
2023-04-28T14:51:45.979Z,11.50
2023-04-28T14:53:49.951Z,7.13
2023-04-28T14:55:53.690Z,5.95
2023-04-28T14:57:57.260Z,4.07
2023-04-28T15:00:00.174Z,2.65
2023-04-28T15:02:03.104Z,8.65
2023-04-28T15:04:06.395Z,4.45
2023-04-28T15:06:09.582Z,3.67
2023-04-28T15:08:12.794Z,8.77
2023-04-28T15:10:17.523Z,10.05
2023-04-28T15:12:21.035Z,10.93
2023-04-28T15:14:23.761Z,8.75
2023-04-28T15:16:26.869Z,9.30
2023-04-28T15:18:29.582Z,10.60
2023-04-28T15:20:33.496Z,3.08
2023-04-28T15:22:36.567Z,2.13
2023-04-28T15:24:39.241Z,1.23
2023-04-28T15:26:43.445Z,5.72
2023-04-28T15:28:46.010Z,1.05
2023-04-28T15:30:48.693Z,1.05
2023-04-28T15:32:51.369Z,4.03
2023-04-28T15:34:53.946Z,3.30
2023-04-28T15:36:56.745Z,2.67
2023-04-28T15:38:59.571Z,2.78
2023-04-28T15:41:02.301Z,4.05
2023-04-28T15:43:08.913Z,3.53
2023-04-28T15:45:12.024Z,3.35
2023-04-28T15:47:14.758Z,4.68
2023-04-28T15:49:17.620Z,3.25
2023-04-28T15:51:20.601Z,2.55
2023-04-28T15:53:24.661Z,2.70
2023-04-28T15:55:27.783Z,1.38
2023-04-28T15:57:30.785Z,1.60
2023-04-28T15:59:35.538Z,5.35
2023-04-28T16:01:38.544Z,10.25
2023-04-28T16:03:42.989Z,11.00
2023-04-28T16:05:46.599Z,12.02
2023-04-28T16:07:49.895Z,9.65
2023-04-28T16:09:53.818Z,10.38
2023-04-28T16:11:59.600Z,6.63
2023-04-28T16:14:02.267Z,3.33
2023-04-28T16:16:09.143Z,2.47
2023-04-28T16:18:14.086Z,1.08
2023-04-28T16:20:17.161Z,0.80
2023-04-28T16:22:19.990Z,3.65
2023-04-28T16:24:25.880Z,2.08
2023-04-28T16:26:28.542Z,1.02
2023-04-28T16:28:31.423Z,1.00
2023-04-28T16:30:34.416Z,1.00
2023-04-28T16:32:40.520Z,2.70
2023-04-28T16:34:43.532Z,0.98
2023-04-28T16:36:46.378Z,8.25
2023-04-28T16:38:49.102Z,1.50
2023-04-28T16:40:52.239Z,2.08
2023-04-28T16:42:54.943Z,2.42
2023-04-28T16:44:58.524Z,1.90
2023-04-28T16:47:01.753Z,2.10
2023-04-28T16:49:05.788Z,3.00
2023-04-28T16:51:10.493Z,2.00
2023-04-28T16:53:14.254Z,2.30
2023-04-28T16:55:18.745Z,3.03
2023-04-28T16:57:21.566Z,3.00
2023-04-28T16:59:26.311Z,10.60
2023-04-28T17:01:30.619Z,3.50
2023-04-28T17:03:40.831Z,7.32
2023-04-28T17:07:47.984Z,1.38
2023-04-28T17:09:52.320Z,3.42
2023-04-28T17:11:56.190Z,5.38
2023-04-28T17:13:58.988Z,6.22
2023-04-28T17:16:01.658Z,3.65
2023-04-28T17:18:04.468Z,6.18
2023-04-28T17:20:07.650Z,5.47
2023-04-28T17:22:11.554Z,6.00
2023-04-28T17:24:15.824Z,3.08
2023-04-28T17:26:18.381Z,2.55
2023-04-28T17:28:21.031Z,4.25
2023-04-28T17:30:25.865Z,4.90
2023-04-28T17:32:30.875Z,3.53
2023-04-28T17:34:33.792Z,2.55
2023-04-28T17:36:36.490Z,2.60
2023-04-28T17:38:39.633Z,4.07
2023-04-28T17:40:44.761Z,4.72
2023-04-28T17:42:47.424Z,2.70
2023-04-28T17:44:50.824Z,3.22
2023-04-28T17:46:56.741Z,2.10
2023-04-28T17:48:59.969Z,3.35
2023-04-28T17:51:02.590Z,3.15
2023-04-28T17:53:05.262Z,1.70
2023-04-28T17:55:08.189Z,1.58
2023-04-28T17:57:12.459Z,1.63
2023-04-28T17:59:16.029Z,2.47
2023-04-28T18:01:18.751Z,1.45
2023-04-28T18:03:21.700Z,1.95
2023-04-28T18:05:25.995Z,2.90
2023-04-28T18:07:28.913Z,5.78
2023-04-28T18:09:31.930Z,3.15
2023-04-28T18:11:35.257Z,2.72
2023-04-28T18:13:39.256Z,1.55
2023-04-28T18:15:42.050Z,2.78
2023-04-28T18:17:44.583Z,2.83
2023-04-28T18:19:51.294Z,2.08
2023-04-28T18:21:54.992Z,2.50
2023-04-28T18:23:57.753Z,2.25
2023-04-28T18:26:00.339Z,1.73
2023-04-28T18:28:03.675Z,1.67
2023-04-28T18:30:09.074Z,1.48
2023-04-28T18:32:14.554Z,1.02
2023-04-28T18:34:17.897Z,1.40
2023-04-28T18:36:23.868Z,1.73
2023-04-28T18:38:26.471Z,1.88
2023-04-28T18:40:32.742Z,2.15
2023-04-28T18:42:35.477Z,2.72
2023-04-28T18:44:38.140Z,1.60
2023-04-28T18:46:42.085Z,1.77
2023-04-28T18:48:44.709Z,1.20
2023-04-28T18:50:48.631Z,2.38
2023-04-28T18:52:51.416Z,0.80
2023-04-28T18:54:54.133Z,2.78
2023-04-28T18:56:57.324Z,1.33
2023-04-28T18:59:00.054Z,1.70
2023-04-28T19:01:02.730Z,2.20
2023-04-28T19:03:06.904Z,0.95
2023-04-28T19:05:09.912Z,1.38
2023-04-28T19:07:21.151Z,1.67
2023-04-28T19:09:23.914Z,0.88
2023-04-28T19:11:26.810Z,1.30
2023-04-28T19:13:29.771Z,2.40
2023-04-28T19:15:33.049Z,2.38
2023-04-28T19:17:35.882Z,1.10
2023-04-28T19:19:40.477Z,2.08
2023-04-28T19:21:44.553Z,1.08
2023-04-28T19:23:48.572Z,3.03
2023-04-28T19:25:51.352Z,4.15
2023-04-28T19:27:54.139Z,2.78
2023-04-28T19:29:56.746Z,3.35
2023-04-28T19:31:59.363Z,1.85
2023-04-28T19:34:02.106Z,1.70
2023-04-28T19:36:09.776Z,3.67
2023-04-28T19:38:12.703Z,1.88
2023-04-28T19:40:16.705Z,2.95
2023-04-28T19:42:19.788Z,1.88
2023-04-28T19:44:22.615Z,2.63
2023-04-28T19:46:28.165Z,1.77
2023-04-28T19:48:30.907Z,2.42
2023-04-28T19:50:33.984Z,2.65
2023-04-28T19:52:38.013Z,4.57
2023-04-28T19:54:41.311Z,3.08
2023-04-28T19:56:44.123Z,4.07
2023-04-28T19:58:46.834Z,3.28
2023-04-28T20:00:49.402Z,2.50
2023-04-28T20:02:52.224Z,5.07
2023-04-28T20:04:56.822Z,3.75
2023-04-28T20:06:59.409Z,5.28
2023-04-28T20:09:03.789Z,5.10
2023-04-28T20:11:07.693Z,9.40
2023-04-28T20:13:10.884Z,10.93
2023-04-28T20:15:15.494Z,8.63
2023-04-28T20:17:18.362Z,7.93
2023-04-28T20:19:21.385Z,7.97
2023-04-28T20:21:24.460Z,8.23
2023-04-28T20:23:29.161Z,7.53
2023-04-28T20:25:35.785Z,6.35
2023-04-28T20:27:41.201Z,6.53
2023-04-28T20:29:43.780Z,7.47
2023-04-28T20:31:46.430Z,4.68
2023-04-28T20:33:49.096Z,5.32
2023-04-28T20:35:52.002Z,4.47
2023-04-28T20:37:54.564Z,4.65
2023-04-28T20:39:57.292Z,4.97
2023-04-28T20:42:01.997Z,3.67
2023-04-28T20:44:05.460Z,4.25
2023-04-28T20:46:10.176Z,4.53
2023-04-28T20:48:12.950Z,5.10
2023-04-28T20:50:15.819Z,4.20
2023-04-28T20:52:18.540Z,5.97
2023-04-28T20:54:21.262Z,3.85
2023-04-28T20:56:24.018Z,4.82
2023-04-28T20:58:28.145Z,3.50
2023-04-28T21:00:33.630Z,3.88
2023-04-28T21:02:39.426Z,3.58
2023-04-28T21:04:42.445Z,4.25
2023-04-28T21:06:45.035Z,6.25
2023-04-28T21:08:47.707Z,3.63
2023-04-28T21:10:50.531Z,4.20
2023-04-28T21:12:53.361Z,10.20
2023-04-28T21:14:59.421Z,4.30
2023-04-28T21:17:03.713Z,2.42
2023-04-28T21:19:06.520Z,3.83
2023-04-28T21:21:09.194Z,2.88
2023-04-28T21:23:12.233Z,4.80
2023-04-28T21:25:14.907Z,6.10
2023-04-28T21:27:17.568Z,3.97
2023-04-28T21:29:22.648Z,4.95
2023-04-28T21:31:27.115Z,2.78
2023-04-28T21:33:30.062Z,1.88
2023-04-28T21:35:32.706Z,2.08
2023-04-28T21:37:35.765Z,5.30
2023-04-28T21:39:38.395Z,1.88
2023-04-28T21:41:41.082Z,1.88
2023-04-28T21:43:43.675Z,1.67
2023-04-28T21:45:46.670Z,2.33
2023-04-28T21:47:50.883Z,1.95
2023-04-28T21:49:54.042Z,2.70
2023-04-28T21:51:56.652Z,2.03
2023-04-28T21:53:59.265Z,2.00
2023-04-28T21:56:01.918Z,2.35
2023-04-28T21:58:04.579Z,3.90
2023-04-28T22:00:10.696Z,1.48
2023-04-28T22:02:13.922Z,1.42
2023-04-28T22:04:18.494Z,1.65
2023-04-28T22:06:21.578Z,2.33
2023-04-28T22:08:26.251Z,1.83
2023-04-28T22:10:29.186Z,1.58
2023-04-28T22:12:31.801Z,1.90
2023-04-28T22:14:41.118Z,1.10
2023-04-28T22:16:44.074Z,2.90
2023-04-28T22:18:46.730Z,1.73
2023-04-28T22:20:51.796Z,1.38
2023-04-28T22:22:57.749Z,2.75
2023-04-28T22:25:00.583Z,2.15
2023-04-28T22:27:03.139Z,1.45
2023-04-28T22:29:05.885Z,1.20
2023-04-28T22:31:08.622Z,3.00
2023-04-28T22:33:11.377Z,1.63
2023-04-28T22:35:13.925Z,3.30
2023-04-28T22:37:18.415Z,3.80
2023-04-28T22:39:21.066Z,1.08
2023-04-28T22:41:24.488Z,1.90
2023-04-28T22:43:27.662Z,2.20
2023-04-28T22:45:30.442Z,1.73
2023-04-28T22:47:33.142Z,0.95
2023-04-28T22:49:35.855Z,1.20
2023-04-28T22:51:38.406Z,2.92
2023-04-28T22:53:42.726Z,0.75
2023-04-28T22:55:45.584Z,1.00
2023-04-28T22:57:48.505Z,1.65
2023-04-28T22:59:51.325Z,0.85
2023-04-28T23:01:57.364Z,1.25
2023-04-28T23:04:00.137Z,1.55
2023-04-28T23:06:02.927Z,0.90
2023-04-28T23:08:05.885Z,1.70
2023-04-28T23:10:11.536Z,1.17
2023-04-28T23:12:16.363Z,0.90
2023-04-28T23:14:18.912Z,1.55
2023-04-28T23:16:21.670Z,2.65
2023-04-28T23:18:24.340Z,1.35
2023-04-28T23:20:27.004Z,3.65
2023-04-28T23:22:29.612Z,2.17
2023-04-28T23:24:34.456Z,2.05
2023-04-28T23:26:38.473Z,0.63
2023-04-28T23:28:41.308Z,0.82
2023-04-28T23:30:44.092Z,0.52
2023-04-28T23:32:46.824Z,1.05
2023-04-28T23:34:49.472Z,1.70
2023-04-28T23:36:52.193Z,1.63
2023-04-28T23:38:54.881Z,1.13
2023-04-28T23:40:57.574Z,1.50
2023-04-28T23:43:01.511Z,2.38
2023-04-28T23:45:04.449Z,2.88
2023-04-28T23:47:07.019Z,0.55
2023-04-28T23:49:09.727Z,0.77
2023-04-28T23:51:12.376Z,2.70
2023-04-28T23:53:15.038Z,1.02
2023-04-28T23:55:17.745Z,1.58
2023-04-28T23:57:20.388Z,0.80
2023-04-28T23:59:27.430Z,0.90
